Terminal Aerodrome Forecast
Issued by NWS

Home | Current Version | Previous Version | Graphics & Text | Print | Product List | Glossary On
Versions: 1 2 3 4 5 6 7 8 9 10 11 12 13 14 15 16 17 18 19 20 21 22 23
369
FTUS43 KLOT 192055 AAA
TAFORD
TAF AMD
KORD 192055Z 1921/2024 21017G25KT P6SM BKN250
     FM200000 22016G28KT P6SM BKN250 WS020/23055KT
     FM200700 23011KT P6SM BKN250
     FM201600 24008KT P6SM BKN020
     FM201900 23008KT P6SM OVC012=

USA.gov is the U.S. government's official web portal to all federal, state and local government web resources and services.